Chastre-Villeroux-Blanmont, Belgium
Current Conditions -  °F | °C
As of 9:25 AM on Friday 19 Dec 2014 (Local Time) from EBBE Reporting Station
Light Rain Light Rain  
Wind Chill: 52°   Ceiling: 1200
Heat Index: 52°   Visibility: 4mi
Dew Point: 48°   Wind: 24mph
Humidity: 88%   Direction: 230°SW
Pressure: 29.88"   Gusts: 37mph
Location:  50.61°N, 4.64°E
Report Text: EBBE 190825Z 23021G32KT 6000 -RADZ FEW007 SCT009 BKN012 11/09 Q1012 GRN GRN TEMPO YLO
Loading
Personal Weather Stations






























Interactive Weather Map New forecast layout! Learn more

10-Day Weather Forecast

Advertisements
Track Severe Weather on mobile